Terminal Aerodrome Forecast
Issued by NWS

Home | Current Version | Previous Version | Graphics & Text | Print | Product List | Glossary On
Versions: 1 2 3 4 5 6 7 8 9 10 11 12 13 14
000
FTUS43 KTOP 071137
TAFFOE
TAF
KFOE 071137Z 0712/0812 36004KT P6SM OVC120
     FM071400 36009KT P6SM OVC040
      TEMPO 0715/0719 5SM -SN OVC025
     FM072300 32009KT P6SM BKN080=

USA.gov is the U.S. government's official web portal to all federal, state and local government web resources and services.